createdAt,value
2022-12-01T00:01:24.385Z,25.02
2022-12-01T00:04:25.942Z,25.83
2022-12-01T00:07:27.527Z,23.98
2022-12-01T00:10:29.132Z,22.13
2022-12-01T00:13:30.763Z,27.17
2022-12-01T00:16:33.467Z,27.27
2022-12-01T00:19:35.154Z,22.70
2022-12-01T00:22:36.704Z,23.25
2022-12-01T00:25:38.335Z,21.10
2022-12-01T00:28:39.952Z,21.02
2022-12-01T00:31:42.174Z,22.50
2022-12-01T00:34:43.761Z,26.67
2022-12-01T00:37:45.296Z,27.40
2022-12-01T00:40:46.866Z,31.15
2022-12-01T00:43:48.455Z,26.60
2022-12-01T00:46:50.054Z,24.25
2022-12-01T00:49:52.407Z,27.62
2022-12-01T00:52:53.965Z,28.15
2022-12-01T00:55:55.586Z,27.80
2022-12-01T00:58:57.324Z,28.92
2022-12-01T01:01:59.023Z,26.17
2022-12-01T01:05:00.581Z,27.40
2022-12-01T01:08:02.144Z,29.27
2022-12-01T01:11:04.977Z,26.48
2022-12-01T01:14:07.385Z,27.05
2022-12-01T01:17:08.972Z,28.12
2022-12-01T01:20:11.015Z,24.08
2022-12-01T01:23:12.556Z,25.10
2022-12-01T01:26:18.497Z,25.17
2022-12-01T01:29:20.066Z,24.73
2022-12-01T01:32:21.824Z,25.95
2022-12-01T01:35:23.384Z,29.02
2022-12-01T01:38:24.921Z,31.87
2022-12-01T01:41:26.498Z,28.02
2022-12-01T01:44:49.102Z,35.75
2022-12-01T01:47:52.829Z,29.98
2022-12-01T01:50:54.913Z,28.12
2022-12-01T01:54:02.343Z,23.25
2022-12-01T01:57:07.536Z,26.55
2022-12-01T02:00:12.536Z,31.33
2022-12-01T02:03:16.883Z,31.83
2022-12-01T02:06:18.572Z,26.60
2022-12-01T02:09:20.120Z,28.40
2022-12-01T02:12:49.379Z,34.47
2022-12-01T02:15:53.922Z,26.77
2022-12-01T02:19:35.908Z,33.42
2022-12-01T02:23:00.974Z,29.75
2022-12-01T02:26:19.422Z,24.42
2022-12-01T02:29:32.974Z,32.15
2022-12-01T02:32:45.475Z,37.53
2022-12-01T02:36:12.627Z,33.17
2022-12-01T02:39:30.481Z,33.67
2022-12-01T02:42:49.892Z,27.27
2022-12-01T02:46:31.306Z,28.38
2022-12-01T02:49:36.836Z,32.88
2022-12-01T02:52:41.130Z,32.70
2022-12-01T02:55:51.706Z,32.03
2022-12-01T02:58:53.465Z,31.67
2022-12-01T03:02:01.384Z,30.42
2022-12-01T03:05:26.628Z,31.58
2022-12-01T03:09:16.736Z,32.17
2022-12-01T03:12:24.384Z,28.40
2022-12-01T03:15:45.040Z,28.35
2022-12-01T03:19:24.939Z,27.17
2022-12-01T03:22:37.823Z,27.27
2022-12-01T03:25:43.350Z,24.77
2022-12-01T03:28:52.342Z,27.50
2022-12-01T03:32:13.144Z,24.40
2022-12-01T03:35:20.684Z,24.92
2022-12-01T03:41:33.260Z,23.17
2022-12-01T03:44:47.791Z,26.50
2022-12-01T03:47:49.392Z,25.42
2022-12-01T03:51:12.403Z,20.02
2022-12-01T03:54:21.416Z,21.77
2022-12-01T03:57:31.884Z,23.90
2022-12-01T04:00:33.953Z,25.05
2022-12-01T04:03:35.603Z,29.67
2022-12-01T04:06:37.494Z,23.55
2022-12-01T04:09:41.436Z,27.00
2022-12-01T04:12:43.006Z,37.60
2022-12-01T04:15:44.585Z,25.20
2022-12-01T04:18:46.511Z,23.30
2022-12-01T04:21:48.091Z,24.80
2022-12-01T04:24:49.782Z,22.02
2022-12-01T04:27:51.573Z,27.20
2022-12-01T04:30:53.340Z,27.17
2022-12-01T04:33:56.177Z,37.05
2022-12-01T04:36:57.758Z,25.48
2022-12-01T04:39:59.304Z,24.40
2022-12-01T04:43:00.846Z,23.73
2022-12-01T04:46:02.903Z,19.15
2022-12-01T04:49:05.552Z,28.60
2022-12-01T04:52:07.563Z,23.10
2022-12-01T04:55:09.613Z,22.62
2022-12-01T04:58:11.170Z,21.77
2022-12-01T05:01:14.907Z,25.75
2022-12-01T05:04:16.678Z,22.33
2022-12-01T05:07:18.321Z,24.98
2022-12-01T05:10:20.256Z,22.75
2022-12-01T05:13:21.817Z,21.20
2022-12-01T05:16:25.840Z,20.85
2022-12-01T05:19:46.196Z,24.42
2022-12-01T05:23:04.961Z,25.20
2022-12-01T05:26:14.359Z,26.45
2022-12-01T05:29:16.184Z,23.20
2022-12-01T05:32:17.728Z,21.42
2022-12-01T05:35:19.341Z,24.37
2022-12-01T05:38:21.144Z,26.80
2022-12-01T05:41:22.789Z,27.73
2022-12-01T05:44:24.346Z,42.83
2022-12-01T05:47:25.891Z,62.75
2022-12-01T05:50:29.375Z,38.28
2022-12-01T05:53:31.140Z,33.55
2022-12-01T05:56:32.696Z,33.35
2022-12-01T05:59:34.295Z,30.27
2022-12-01T06:02:35.853Z,40.70
2022-12-01T06:05:37.418Z,45.08
2022-12-01T06:08:38.975Z,46.50
2022-12-01T06:11:40.682Z,40.45
2022-12-01T06:14:42.570Z,38.15
2022-12-01T06:17:44.309Z,55.00
2022-12-01T06:20:45.995Z,49.17
2022-12-01T06:23:47.721Z,48.83
2022-12-01T06:26:49.401Z,46.20
2022-12-01T06:29:51.161Z,49.20
2022-12-01T06:32:53.017Z,53.63
2022-12-01T06:35:59.284Z,32.55
2022-12-01T06:39:00.842Z,37.17
2022-12-01T06:42:02.439Z,31.87
2022-12-01T06:45:04.236Z,26.48
2022-12-01T06:48:05.991Z,31.77
2022-12-01T06:51:07.721Z,29.87
2022-12-01T06:54:11.631Z,31.90
2022-12-01T06:57:13.336Z,32.17
2022-12-01T07:00:15.635Z,28.27
2022-12-01T07:03:17.597Z,23.30
2022-12-01T07:06:19.182Z,26.37
2022-12-01T07:09:20.790Z,34.55
2022-12-01T07:12:24.701Z,25.60
2022-12-01T07:15:28.697Z,26.33
2022-12-01T07:18:31.127Z,20.40
2022-12-01T07:21:32.696Z,22.87
2022-12-01T07:24:34.341Z,21.67
2022-12-01T07:27:36.091Z,26.87
2022-12-01T07:30:37.679Z,25.02
2022-12-01T07:33:39.672Z,27.62
2022-12-01T07:36:41.399Z,22.25
2022-12-01T07:39:43.150Z,22.67
2022-12-01T07:42:44.692Z,20.65
2022-12-01T07:45:46.568Z,21.08
2022-12-01T07:48:48.908Z,24.23
2022-12-01T07:51:50.485Z,20.95
2022-12-01T07:54:52.744Z,22.87
2022-12-01T07:57:54.328Z,24.98
2022-12-01T08:00:55.990Z,32.95
2022-12-01T08:03:59.327Z,21.45
2022-12-01T08:07:00.943Z,19.48
2022-12-01T08:10:02.583Z,20.02
2022-12-01T08:13:04.501Z,29.15
2022-12-01T08:16:08.250Z,23.60
2022-12-01T08:19:10.952Z,32.35
2022-12-01T08:22:12.485Z,29.60
2022-12-01T08:25:14.168Z,28.23
2022-12-01T08:28:15.731Z,29.17
2022-12-01T08:31:25.148Z,24.60
2022-12-01T08:34:27.345Z,25.92
2022-12-01T08:37:28.908Z,18.48
2022-12-01T08:40:30.846Z,20.33
2022-12-01T08:43:56.706Z,20.30
2022-12-01T08:46:54.581Z,17.92
2022-12-01T08:49:56.226Z,17.15
2022-12-01T08:52:57.776Z,17.02
2022-12-01T08:56:01.811Z,19.37
2022-12-01T08:59:03.980Z,21.20
2022-12-01T09:02:07.312Z,21.90
2022-12-01T09:05:09.309Z,19.17
2022-12-01T09:08:29.554Z,15.73
2022-12-01T09:11:31.187Z,18.62
2022-12-01T09:14:38.742Z,19.85
2022-12-01T09:17:40.343Z,16.37
2022-12-01T09:20:41.889Z,16.10
2022-12-01T09:23:43.485Z,13.10
2022-12-01T09:26:45.097Z,15.38
2022-12-01T09:29:46.977Z,15.82
2022-12-01T09:32:48.656Z,14.73
2022-12-01T09:35:50.297Z,14.32
2022-12-01T09:38:52.062Z,18.98
2022-12-01T09:41:59.473Z,22.65
2022-12-01T09:45:04.378Z,15.95
2022-12-01T09:48:07.809Z,17.15
2022-12-01T09:51:17.250Z,19.85
2022-12-01T09:54:18.940Z,15.95
2022-12-01T09:57:36.645Z,14.20
2022-12-01T10:00:42.991Z,15.27
2022-12-01T10:03:53.153Z,15.55
2022-12-01T10:06:54.617Z,19.60
2022-12-01T10:09:59.246Z,16.42
2022-12-01T10:13:00.935Z,21.48
2022-12-01T10:16:07.873Z,24.73
2022-12-01T10:19:41.251Z,14.77
2022-12-01T10:22:50.643Z,14.60
2022-12-01T10:25:52.094Z,16.95
2022-12-01T10:29:08.968Z,33.42
2022-12-01T10:32:30.641Z,31.70
2022-12-01T10:35:37.677Z,23.35
2022-12-01T10:38:39.343Z,16.70
2022-12-01T10:41:41.469Z,12.50
2022-12-01T10:44:44.311Z,15.65
2022-12-01T10:48:24.323Z,16.27
2022-12-01T10:51:27.905Z,16.52
2022-12-01T10:54:34.133Z,19.15
2022-12-01T10:57:37.595Z,25.65
2022-12-01T11:01:09.495Z,20.37
2022-12-01T11:04:21.270Z,17.98
2022-12-01T11:07:29.777Z,24.33
2022-12-01T11:10:37.364Z,18.52
2022-12-01T11:16:49.405Z,17.20
2022-12-01T11:19:51.205Z,16.90
2022-12-01T11:22:54.190Z,17.65
2022-12-01T11:26:14.031Z,16.42
2022-12-01T11:29:38.917Z,13.38
2022-12-01T11:32:40.579Z,23.00
2022-12-01T11:35:48.767Z,33.33
2022-12-01T11:38:54.945Z,16.75
2022-12-01T11:42:02.147Z,25.08
2022-12-01T11:45:03.616Z,17.00
2022-12-01T11:48:17.295Z,29.37
2022-12-01T11:51:21.549Z,23.87
2022-12-01T11:54:25.727Z,15.48
2022-12-01T11:57:34.986Z,22.10
2022-12-01T12:00:54.488Z,15.70
2022-12-01T12:04:04.610Z,16.70
2022-12-01T12:07:24.903Z,20.10
2022-12-01T12:10:32.599Z,19.27
2022-12-01T12:13:52.133Z,18.67
2022-12-01T12:17:09.088Z,17.45
2022-12-01T12:20:52.674Z,17.52
2022-12-01T12:24:36.783Z,19.77
2022-12-01T12:28:08.419Z,17.62
2022-12-01T12:31:44.258Z,18.60
2022-12-01T12:34:58.934Z,17.02
2022-12-01T12:38:00.427Z,14.68
2022-12-01T12:41:29.913Z,18.17
2022-12-01T12:44:50.542Z,15.88
2022-12-01T12:48:05.805Z,19.48
2022-12-01T12:51:10.434Z,16.42
2022-12-01T12:54:12.080Z,31.80
2022-12-01T12:57:34.794Z,34.40
2022-12-01T13:00:42.345Z,29.17
2022-12-01T13:07:15.247Z,18.37
2022-12-01T13:10:48.201Z,20.75
2022-12-01T13:13:49.647Z,20.02
2022-12-01T13:16:56.272Z,24.50
2022-12-01T13:19:57.855Z,16.67
2022-12-01T13:23:02.495Z,16.95
2022-12-01T13:26:08.216Z,20.70
2022-12-01T13:29:23.375Z,23.17
2022-12-01T13:32:30.572Z,19.83
2022-12-01T13:35:37.454Z,20.77
2022-12-01T13:38:40.154Z,14.48
2022-12-01T13:41:44.289Z,16.37
2022-12-01T13:44:55.722Z,16.73
2022-12-01T13:48:01.577Z,21.62
2022-12-01T13:51:04.082Z,25.48
2022-12-01T13:54:26.460Z,16.08
2022-12-01T13:57:30.621Z,14.32
2022-12-01T14:00:34.998Z,14.40
2022-12-01T14:03:40.828Z,13.13
2022-12-01T14:06:50.573Z,22.10
2022-12-01T14:09:56.166Z,33.45
2022-12-01T14:13:02.705Z,46.45
2022-12-01T14:16:05.324Z,39.05
2022-12-01T14:19:25.828Z,23.75
2022-12-01T14:22:38.334Z,24.37
2022-12-01T14:25:41.610Z,30.15
2022-12-01T14:28:55.466Z,45.20
2022-12-01T14:31:59.973Z,55.88
2022-12-01T14:35:04.991Z,55.70
2022-12-01T14:38:10.148Z,55.95
2022-12-01T14:41:22.695Z,53.58
2022-12-01T14:44:38.089Z,55.67
2022-12-01T14:47:44.596Z,53.17
2022-12-01T14:50:50.307Z,61.83
2022-12-01T14:53:52.543Z,77.47
2022-12-01T14:57:02.697Z,98.05
2022-12-01T15:00:12.751Z,74.35
2022-12-01T15:03:14.779Z,68.43
2022-12-01T15:06:19.412Z,63.33
2022-12-01T15:09:33.368Z,61.42
2022-12-01T15:12:44.380Z,58.55
2022-12-01T15:16:03.747Z,62.30
2022-12-01T15:19:32.403Z,59.45
2022-12-01T15:25:37.078Z,76.53
2022-12-01T15:28:38.613Z,98.35
2022-12-01T15:31:40.737Z,87.03
2022-12-01T15:34:48.366Z,120.35
2022-12-01T15:37:52.572Z,96.28
2022-12-01T15:44:27.254Z,214.48
2022-12-01T15:47:43.823Z,247.68
2022-12-01T15:50:59.168Z,193.37
2022-12-01T15:54:02.938Z,139.93
2022-12-01T15:57:05.981Z,137.65
2022-12-01T16:00:18.693Z,153.50
2022-12-01T16:03:20.296Z,166.57
2022-12-01T16:06:28.730Z,175.45
2022-12-01T16:10:03.096Z,99.90
2022-12-01T16:13:42.239Z,106.53
2022-12-01T16:16:46.411Z,167.75
2022-12-01T16:19:48.255Z,137.30
2022-12-01T16:22:58.931Z,119.80
2022-12-01T16:26:02.137Z,119.50
2022-12-01T16:29:19.942Z,139.25
2022-12-01T16:32:27.766Z,123.82
2022-12-01T16:35:32.509Z,135.63
2022-12-01T16:38:34.686Z,120.68
2022-12-01T16:41:39.156Z,81.75
2022-12-01T16:44:42.077Z,93.22
2022-12-01T16:47:46.072Z,80.20
2022-12-01T16:50:48.950Z,102.32
2022-12-01T16:53:51.212Z,99.87
2022-12-01T16:56:53.212Z,88.85
2022-12-01T16:59:55.171Z,79.45
2022-12-01T17:02:58.035Z,89.57
2022-12-01T17:06:04.527Z,100.38
2022-12-01T17:09:06.373Z,93.50
2022-12-01T17:12:08.005Z,87.78
2022-12-01T17:15:10.420Z,84.30
2022-12-01T17:18:13.042Z,95.62
2022-12-01T17:21:14.895Z,93.68
2022-12-01T17:24:19.230Z,117.93
2022-12-01T17:27:23.493Z,134.00
2022-12-01T17:30:25.560Z,120.97
2022-12-01T17:33:27.676Z,133.75
2022-12-01T17:36:29.692Z,143.48
2022-12-01T17:39:31.862Z,136.25
2022-12-01T17:42:34.047Z,152.57
2022-12-01T17:45:35.612Z,142.13
2022-12-01T17:48:39.275Z,127.70
2022-12-01T17:51:41.789Z,118.10
2022-12-01T17:54:43.560Z,112.50
2022-12-01T17:57:45.257Z,111.47
2022-12-01T18:00:48.723Z,148.70
2022-12-01T18:03:51.021Z,130.87
2022-12-01T18:06:54.525Z,138.35
2022-12-01T18:09:56.667Z,127.57
2022-12-01T18:12:58.341Z,110.50
2022-12-01T18:16:00.756Z,94.00
2022-12-01T18:19:04.118Z,65.85
2022-12-01T18:22:05.745Z,61.05
2022-12-01T18:25:07.884Z,64.75
2022-12-01T18:28:12.519Z,45.90
2022-12-01T18:31:16.385Z,48.55
2022-12-01T18:34:18.325Z,49.88
2022-12-01T18:37:21.128Z,59.40
2022-12-01T18:40:27.334Z,47.35
2022-12-01T18:43:31.374Z,48.25
2022-12-01T18:46:33.678Z,42.45
2022-12-01T18:49:35.554Z,38.28
2022-12-01T18:52:40.720Z,38.08
2022-12-01T18:55:42.725Z,41.25
2022-12-01T18:58:44.310Z,31.90
2022-12-01T19:01:48.067Z,40.88
2022-12-01T19:04:50.710Z,33.30
2022-12-01T19:07:55.818Z,37.03
2022-12-01T19:11:03.521Z,38.00
2022-12-01T19:17:07.559Z,43.15
2022-12-01T19:20:10.128Z,43.05
2022-12-01T19:23:12.246Z,35.15
2022-12-01T19:26:19.982Z,47.90
2022-12-01T19:29:22.220Z,60.10
2022-12-01T19:32:24.283Z,40.05
2022-12-01T19:35:26.365Z,29.17
2022-12-01T19:38:28.000Z,35.55
2022-12-01T19:41:30.098Z,35.35
2022-12-01T19:44:32.168Z,29.60
2022-12-01T19:47:34.999Z,32.30
2022-12-01T19:50:36.888Z,34.83
2022-12-01T19:53:38.465Z,33.50
2022-12-01T19:56:41.285Z,25.98
2022-12-01T19:59:43.420Z,31.48
2022-12-01T20:02:46.598Z,31.00
2022-12-01T20:05:48.674Z,32.97
2022-12-01T20:08:51.437Z,30.20
2022-12-01T20:11:54.237Z,32.88
2022-12-01T20:14:56.289Z,53.83
2022-12-01T20:17:58.265Z,91.93
2022-12-01T20:21:20.076Z,81.37
2022-12-01T20:24:23.276Z,69.65
2022-12-01T20:27:25.639Z,35.67
2022-12-01T20:30:28.484Z,42.78
2022-12-01T20:33:30.827Z,47.92
2022-12-01T20:36:33.026Z,43.22
2022-12-01T20:39:37.376Z,41.97
2022-12-01T20:42:40.133Z,48.75
2022-12-01T20:45:42.267Z,54.85
2022-12-01T20:48:44.664Z,53.92
2022-12-01T20:51:47.365Z,50.50
2022-12-01T20:54:49.471Z,44.53
2022-12-01T20:58:00.496Z,41.30
2022-12-01T21:01:11.741Z,33.35
2022-12-01T21:04:14.075Z,36.33
2022-12-01T21:07:15.703Z,35.58
2022-12-01T21:10:20.160Z,34.28
2022-12-01T21:13:41.991Z,29.35
2022-12-01T21:16:48.321Z,29.05
2022-12-01T21:20:11.700Z,25.98
2022-12-01T21:23:16.038Z,25.80
2022-12-01T21:26:19.032Z,25.88
2022-12-01T21:29:22.098Z,25.92
2022-12-01T21:32:34.478Z,24.63
2022-12-01T21:35:36.038Z,30.33
2022-12-01T21:38:37.642Z,36.25
2022-12-01T21:41:39.415Z,38.03
2022-12-01T21:44:41.035Z,43.55
2022-12-01T21:47:42.621Z,39.13
2022-12-01T21:50:48.104Z,54.17
2022-12-01T21:53:56.357Z,44.53
2022-12-01T21:56:58.672Z,45.45
2022-12-01T22:00:29.284Z,58.33
2022-12-01T22:03:33.753Z,51.22
2022-12-01T22:06:40.229Z,33.08
2022-12-01T22:09:41.777Z,29.83
2022-12-01T22:12:43.333Z,28.80
2022-12-01T22:15:44.988Z,22.17
2022-12-01T22:18:52.513Z,30.77
2022-12-01T22:22:02.904Z,24.85
2022-12-01T22:25:27.704Z,23.23
2022-12-01T22:28:29.250Z,21.67
2022-12-01T22:31:31.482Z,22.45
2022-12-01T22:34:34.403Z,22.73
2022-12-01T22:37:59.772Z,27.90
2022-12-01T22:41:01.304Z,23.75
2022-12-01T22:44:02.967Z,22.87
2022-12-01T22:47:04.957Z,22.92
2022-12-01T22:50:32.370Z,25.12
2022-12-01T22:53:33.925Z,26.05
2022-12-01T22:56:39.657Z,24.58
2022-12-01T22:59:43.533Z,25.00
2022-12-01T23:02:48.467Z,22.40
2022-12-01T23:05:55.579Z,22.42
2022-12-01T23:08:57.117Z,24.85
2022-12-01T23:12:05.101Z,21.98
2022-12-01T23:15:36.438Z,29.50
2022-12-01T23:18:38.080Z,28.38
2022-12-01T23:21:39.669Z,23.70
2022-12-01T23:24:41.361Z,29.17
2022-12-01T23:27:45.033Z,29.85
2022-12-01T23:30:49.558Z,29.73
2022-12-01T23:33:51.598Z,37.08
2022-12-01T23:36:53.174Z,30.35
2022-12-01T23:39:55.831Z,29.15
2022-12-01T23:43:15.899Z,36.33
2022-12-01T23:46:24.170Z,25.92
2022-12-01T23:49:30.138Z,26.55
2022-12-01T23:52:36.383Z,25.50
2022-12-01T23:55:37.944Z,27.35
2022-12-01T23:58:39.494Z,27.27
